Terminal Aerodrome Forecast
Issued by NWS

Home | Current Version | Previous Version | Graphics & Text | Print | Product List | Glossary On
Versions: 1 2 3 4 5 6 7 8 9 10 11 12 13 14
000
FTUS43 KOAX 251148 CCA
TAFCDR
TAF COR
KCDR 251148Z 2512/2612 03009KT P6SM VCSH SCT020 OVC050
      TEMPO 2512/2515 BKN020
     FM251500 34012KT P6SM SCT050
     FM251900 33014G24KT P6SM SCT100
     FM260100 VRB04KT P6SM BKN080=

USA.gov is the U.S. government's official web portal to all federal, state and local government web resources and services.